Unicom:                    122.8

AWOS:                  118.275

Elevation           1458’ MSL

TPA:                   2500’ MSL

06/24:         5003’ L   75’ W

PAPI:       06/Left     24/Left

(Operate lights on unicom freq.)

Traffic Pattern: Left

Beacon: Sunset to Sunrise

Windsock: yes, lighted

Segmented Circle: No

 

Cleveland Center: 126.72/291.65

FSS: Altoona

[Source: ADDS]
METAR
KFKL 281156Z AUTO 31006KT 9SM -SN FEW025 OVC039 M09/M11 A3028 RMK AO2 SLP280 P0000 60000 7//// T10891111 11061 21094 53013 FZRANO =
KFKL 281145Z 2812/2912 33008KT P6SM -SHSN OVC024 FM290000 30007KT P6SM OVC020
TAF
KFKL 281145Z 2812/2912 33008KT P6SM -SHSN OVC024 FM290000 30007KT P6SM OVC020 =
[Source: ADDS]
METAR
KDUJ 281153Z AUTO 32009KT 5SM -SN OVC025 M08/M13 A3020 RMK AO2 SNB47 SLP252 P0000 60000 T10831128 11067 21083 53018 =
KDUJ 281145Z 2812/2912 33008KT P6SM -SHSN OVC024 FM290000 30007KT P6SM OVC020
TAF
KDUJ 281145Z 2812/2912 33008KT P6SM -SHSN OVC024 FM290000 30007KT P6SM OVC020 =

Welcome to Clarion County Airport.

We look forward to serving all of your aviation needs.


Clarion County Airport is a General Aviation, Business Class airport serving the Clarion County Area in Central Western Pennsylvania.  Our 5,003' asphalt runway and gps approaches are capable of serving most of the general aviation fleet in most weather conditions.


If you are planning a fuel stop while flying in Western Pennsylvania, consider paying us a visit. Our prices are some of the lowest in the state Check prices here ----> www.airnav.com/fuel and enter identifier KAXQ or see current prices below. We can have you fueled and taxiing out to the runway in about 10 minutes. Our current hours of operation are Monday- Sunday 8:00AM-4:00PM. Holiday closures are Christmas Day and Thanksgiving. If you require use of the facilities during the holidays or after hours please call ahead and someone will be there to assist you.


- Airport Manager -  


                             CURRENT FUEL PRICES       JET-A w/additive    $3.50               100LL     $4.50 CC  


                              Self Service fueling available 24/7, credit card reader enabled. Center point fueling available upon request.

                                                           For after hours fueling assistance please contact 814-316-5746